Time,TemperatureF,DewpointF,PressureIn,WindDirection,WindDirectionDegrees,WindSpeedMPH,WindSpeedGustMPH,Humidity,HourlyPrecipIn,Conditions,Clouds,dailyrainin,SoftwareType,DateUTC
2013-10-27 00:02:00,-999.0,-99.9,30.00,NE,54,0.0,2.0,-999,-99.99,,,-99.99,,2013-10-27 04:02:00,
2013-10-27 00:13:00,42.0,38.0,30.00,NE,54,0.0,2.0,87,0.00,,,0.00,,2013-10-27 04:13:00,
2013-10-27 00:24:00,42.0,38.0,30.00,NE,54,0.0,2.0,87,0.00,,,0.00,,2013-10-27 04:24:00,
2013-10-27 00:54:00,41.0,37.0,30.01,NE,54,0.0,0.0,87,0.00,,,0.00,,2013-10-27 04:54:00,
2013-10-27 01:13:00,41.0,37.0,30.03,North,360,0.0,0.0,87,0.00,,,0.00,,2013-10-27 05:13:00,
2013-10-27 01:23:00,41.0,37.0,30.03,North,360,0.0,0.0,87,0.00,,,0.00,,2013-10-27 05:23:00,
2013-10-27 01:52:00,42.0,38.0,30.01,North,360,0.0,0.0,85,0.00,,,0.00,,2013-10-27 05:52:00,
2013-10-27 02:13:00,43.0,39.0,30.03,North,360,0.0,0.0,87,0.00,,,0.00,,2013-10-27 06:13:00,
2013-10-27 02:22:00,43.0,39.0,30.03,North,360,0.0,0.0,87,0.00,,,0.00,,2013-10-27 06:22:00,
2013-10-27 02:53:00,43.0,40.0,30.03,NW,320,1.0,3.0,88,0.00,,,0.00,,2013-10-27 06:53:00,
2013-10-27 03:12:00,44.0,41.0,30.02,NW,320,0.0,2.0,89,0.00,,,0.00,,2013-10-27 07:12:00,
2013-10-27 03:22:00,44.0,41.0,30.02,NW,320,0.0,2.0,89,0.00,,,0.00,,2013-10-27 07:22:00,
2013-10-27 03:52:00,43.0,40.0,30.00,NW,320,0.0,0.0,88,0.00,,,0.00,,2013-10-27 07:52:00,
2013-10-27 04:11:00,42.0,39.0,30.00,NW,320,0.0,0.0,89,0.00,,,0.00,,2013-10-27 08:11:00,
2013-10-27 04:22:00,42.0,39.0,30.00,NW,320,0.0,0.0,89,0.00,,,0.00,,2013-10-27 08:22:00,
2013-10-27 04:52:00,43.0,41.0,30.01,NW,320,0.0,0.0,91,0.00,,,0.00,,2013-10-27 08:52:00,
2013-10-27 05:12:00,42.0,40.0,30.01,WSW,244,0.0,1.0,92,0.00,,,0.00,,2013-10-27 09:12:00,
2013-10-27 05:22:00,42.0,40.0,30.01,WSW,244,0.0,1.0,92,0.00,,,0.00,,2013-10-27 09:22:00,
2013-10-27 05:54:00,43.0,41.0,30.00,SW,230,0.0,0.0,92,0.00,,,0.00,,2013-10-27 09:54:00,
2013-10-27 06:12:00,41.0,39.0,30.02,SW,230,0.0,0.0,94,0.00,,,0.00,,2013-10-27 10:12:00,
2013-10-27 06:23:00,41.0,39.0,30.02,SW,230,0.0,0.0,94,0.00,,,0.00,,2013-10-27 10:23:00,
2013-10-27 06:53:00,39.0,38.0,30.01,SW,230,0.0,0.0,96,0.00,,,0.00,,2013-10-27 10:53:00,
2013-10-27 07:12:00,39.0,38.0,30.01,SW,230,0.0,0.0,98,0.00,,,0.00,,2013-10-27 11:12:00,
2013-10-27 07:22:00,39.0,38.0,30.01,SW,230,0.0,0.0,98,0.00,,,0.00,,2013-10-27 11:22:00,
2013-10-27 07:52:00,38.0,38.0,30.03,SW,230,0.0,0.0,100,0.00,,,0.00,,2013-10-27 11:52:00,
2013-10-27 08:12:00,38.0,38.0,30.03,SW,230,0.0,0.0,100,0.00,,,0.00,,2013-10-27 12:12:00,
2013-10-27 08:22:00,38.0,38.0,30.03,SW,230,0.0,0.0,100,0.00,,,0.00,,2013-10-27 12:22:00,
2013-10-27 08:52:00,38.0,38.0,30.05,SW,230,0.0,0.0,100,0.00,,,0.00,,2013-10-27 12:52:00,
2013-10-27 09:22:00,37.0,37.0,30.05,SW,230,0.0,0.0,100,0.00,,,0.00,,2013-10-27 13:22:00,
2013-10-27 09:52:00,39.0,39.0,30.05,SW,230,0.0,0.0,100,0.00,,,0.00,,2013-10-27 13:52:00,
2013-10-27 10:11:00,42.0,41.0,30.06,SE,136,0.0,0.0,96,0.00,,,0.00,,2013-10-27 14:11:00,
2013-10-27 10:22:00,42.0,41.0,30.06,SE,136,0.0,0.0,96,0.00,,,0.00,,2013-10-27 14:22:00,
2013-10-27 10:52:00,45.0,41.0,30.09,ESE,113,0.0,2.0,87,0.00,,,0.00,,2013-10-27 14:52:00,
2013-10-27 11:12:00,49.0,43.0,30.08,ESE,112,0.0,0.0,79,0.00,,,0.00,,2013-10-27 15:12:00,
2013-10-27 11:22:00,49.0,43.0,30.08,ESE,112,0.0,0.0,79,0.00,,,0.00,,2013-10-27 15:22:00,
2013-10-27 11:54:00,52.0,44.0,30.07,SE,144,0.0,0.0,75,0.00,,,0.00,,2013-10-27 15:54:00,
2013-10-27 12:13:00,53.0,44.0,30.07,SE,144,0.0,2.0,72,0.00,,,0.00,,2013-10-27 16:13:00,
2013-10-27 12:24:00,53.0,44.0,30.07,SE,144,0.0,2.0,72,0.00,,,0.00,,2013-10-27 16:24:00,
2013-10-27 12:34:00,53.0,44.0,30.07,SE,144,0.0,2.0,72,0.00,,,0.00,,2013-10-27 16:34:00,
2013-10-27 13:13:00,57.0,47.0,30.06,WSW,237,0.0,2.0,69,0.00,,,0.00,,2013-10-27 17:13:00,
2013-10-27 13:22:00,57.0,47.0,30.06,WSW,237,0.0,2.0,69,0.00,,,0.00,,2013-10-27 17:22:00,
2013-10-27 13:53:00,58.0,48.0,30.07,WSW,237,0.0,0.0,69,0.00,,,0.00,,2013-10-27 17:53:00,
2013-10-27 14:12:00,60.0,49.0,30.05,WSW,237,0.0,1.0,67,0.00,,,0.00,,2013-10-27 18:12:00,
2013-10-27 14:22:00,60.0,49.0,30.05,WSW,237,0.0,1.0,67,0.00,,,0.00,,2013-10-27 18:22:00,
2013-10-27 14:43:00,63.0,48.0,30.03,ESE,109,0.0,1.0,59,0.00,,,0.00,,2013-10-27 18:43:00,
2013-10-27 14:53:00,63.0,48.0,30.03,ESE,109,0.0,1.0,59,0.00,,,0.00,,2013-10-27 18:53:00,
2013-10-27 15:12:00,62.0,48.0,30.05,SE,124,0.0,0.0,60,0.00,,,0.00,,2013-10-27 19:12:00,
2013-10-27 15:22:00,62.0,48.0,30.05,SE,124,0.0,0.0,60,0.00,,,0.00,,2013-10-27 19:22:00,
2013-10-27 15:52:00,62.0,49.0,30.02,SE,124,0.0,0.0,63,0.00,,,0.00,,2013-10-27 19:52:00,
2013-10-27 16:12:00,61.0,47.0,30.02,SE,124,0.0,0.0,61,0.00,,,0.00,,2013-10-27 20:12:00,
2013-10-27 16:22:00,61.0,47.0,30.02,SE,124,0.0,0.0,61,0.00,,,0.00,,2013-10-27 20:22:00,
2013-10-27 16:52:00,61.0,50.0,30.02,SE,124,0.0,0.0,66,0.00,,,0.00,,2013-10-27 20:52:00,
2013-10-27 17:11:00,60.0,49.0,30.02,SE,124,0.0,0.0,66,0.00,,,0.00,,2013-10-27 21:11:00,
2013-10-27 17:22:00,60.0,49.0,30.02,SE,124,0.0,0.0,66,0.00,,,0.00,,2013-10-27 21:22:00,
2013-10-27 17:54:00,60.0,50.0,30.02,SE,137,0.0,2.0,69,0.00,,,0.00,,2013-10-27 21:54:00,
2013-10-27 18:13:00,59.0,50.0,30.03,SE,137,0.0,0.0,73,0.00,,,0.00,,2013-10-27 22:13:00,
2013-10-27 18:24:00,59.0,50.0,30.03,SE,137,0.0,0.0,73,0.00,,,0.00,,2013-10-27 22:24:00,
2013-10-27 18:54:00,58.0,50.0,30.04,SE,137,0.0,0.0,76,0.00,,,0.00,,2013-10-27 22:54:00,
2013-10-27 19:12:00,57.0,50.0,30.02,SE,137,0.0,0.0,77,0.00,,,0.00,,2013-10-27 23:12:00,
2013-10-27 19:22:00,57.0,50.0,30.02,SE,137,0.0,0.0,77,0.00,,,0.00,,2013-10-27 23:22:00,
2013-10-27 19:42:00,57.0,51.0,30.03,SE,137,0.0,0.0,80,0.00,,,0.00,,2013-10-27 23:42:00,
2013-10-27 19:52:00,57.0,51.0,30.03,SE,137,0.0,0.0,80,0.00,,,0.00,,2013-10-27 23:52:00,
2013-10-27 20:11:00,56.0,51.0,30.04,SE,137,0.0,0.0,82,0.00,,,0.00,,2013-10-28 00:11:00,
2013-10-27 20:22:00,56.0,51.0,30.04,SE,137,0.0,0.0,82,0.00,,,0.00,,2013-10-28 00:22:00,
2013-10-27 20:43:00,56.0,51.0,30.04,SE,137,0.0,0.0,83,0.00,,,0.00,,2013-10-28 00:43:00,
2013-10-27 20:52:00,56.0,51.0,30.04,SE,137,0.0,0.0,83,0.00,,,0.00,,2013-10-28 00:52:00,
2013-10-27 21:12:00,55.0,50.0,30.05,SE,137,0.0,0.0,82,0.00,,,0.00,,2013-10-28 01:12:00,
2013-10-27 21:22:00,55.0,50.0,30.05,SE,137,0.0,0.0,82,0.00,,,0.00,,2013-10-28 01:22:00,
2013-10-27 21:52:00,54.0,49.0,30.06,SE,137,0.0,0.0,83,0.00,,,0.00,,2013-10-28 01:52:00,
2013-10-27 22:12:00,53.0,50.0,30.08,SE,137,0.0,0.0,88,0.00,,,0.00,,2013-10-28 02:12:00,
2013-10-27 22:22:00,53.0,50.0,30.08,SE,137,0.0,0.0,88,0.00,,,0.00,,2013-10-28 02:22:00,
2013-10-27 22:53:00,51.0,48.0,30.07,SE,137,0.0,0.0,91,0.00,,,0.00,,2013-10-28 02:53:00,
2013-10-27 23:11:00,51.0,49.0,30.09,SE,137,0.0,0.0,92,0.00,,,0.00,,2013-10-28 03:11:00,
2013-10-27 23:22:00,51.0,49.0,30.09,SE,137,0.0,0.0,92,0.00,,,0.00,,2013-10-28 03:22:00,
2013-10-27 23:44:00,51.0,49.0,30.08,SE,137,0.0,0.0,92,0.00,,,0.00,,2013-10-28 03:44:00,
2013-10-27 23:54:00,51.0,49.0,30.08,SE,137,0.0,0.0,92,0.00,,,0.00,,2013-10-28 03:54:00,